sensor_id;sensor_type;location;lat;lon;timestamp;pressure;altitude;pressure_sealevel;temperature;humidity
73870;BME280;64924;42.140;24.762;2023-11-19T00:01:07;99370.97;;;9.01;44.19
73870;BME280;64924;42.140;24.762;2023-11-19T00:03:33;99372.16;;;9.13;44.18
73870;BME280;64924;42.140;24.762;2023-11-19T00:05:59;99383.75;;;9.07;44.32
73870;BME280;64924;42.140;24.762;2023-11-19T00:08:24;99342.59;;;8.76;44.16
73870;BME280;64924;42.140;24.762;2023-11-19T00:10:50;99375.63;;;9.07;44.24
73870;BME280;64924;42.140;24.762;2023-11-19T00:13:16;99374.97;;;9.05;44.34
73870;BME280;64924;42.140;24.762;2023-11-19T00:15:42;99392.47;;;9.02;44.38
73870;BME280;64924;42.140;24.762;2023-11-19T00:18:07;99379.63;;;9.11;44.21
73870;BME280;64924;42.140;24.762;2023-11-19T00:20:33;99344.84;;;8.93;43.98
73870;BME280;64924;42.140;24.762;2023-11-19T00:22:58;99370.47;;;9.12;43.96
73870;BME280;64924;42.140;24.762;2023-11-19T00:25:24;99381.75;;;9.16;44.22
73870;BME280;64924;42.140;24.762;2023-11-19T00:27:51;99379.38;;;9.06;44.83
73870;BME280;64924;42.140;24.762;2023-11-19T00:30:18;99387.75;;;9.11;44.68
73870;BME280;64924;42.140;24.762;2023-11-19T00:32:44;99408.03;;;9.15;44.78
73870;BME280;64924;42.140;24.762;2023-11-19T00:35:10;99385.63;;;9.07;44.51
73870;BME280;64924;42.140;24.762;2023-11-19T00:37:36;99391.81;;;9.00;45.09
73870;BME280;64924;42.140;24.762;2023-11-19T00:40:02;99412.53;;;9.08;44.47
73870;BME280;64924;42.140;24.762;2023-11-19T00:42:30;99367.50;;;8.86;44.67
73870;BME280;64924;42.140;24.762;2023-11-19T00:44:56;99364.53;;;8.81;44.57
73870;BME280;64924;42.140;24.762;2023-11-19T00:47:21;99409.63;;;9.10;44.63
73870;BME280;64924;42.140;24.762;2023-11-19T00:49:47;99411.25;;;9.04;44.53
73870;BME280;64924;42.140;24.762;2023-11-19T00:52:16;99411.88;;;9.06;44.73
73870;BME280;64924;42.140;24.762;2023-11-19T00:54:42;99406.09;;;9.09;44.37
73870;BME280;64924;42.140;24.762;2023-11-19T00:57:08;99421.97;;;9.12;44.63
73870;BME280;64924;42.140;24.762;2023-11-19T00:59:33;99409.19;;;9.06;44.54
73870;BME280;64924;42.140;24.762;2023-11-19T01:01:59;99421.31;;;9.10;44.59
73870;BME280;64924;42.140;24.762;2023-11-19T01:04:29;99406.19;;;9.01;44.91
73870;BME280;64924;42.140;24.762;2023-11-19T01:06:55;99424.28;;;9.15;44.74
73870;BME280;64924;42.140;24.762;2023-11-19T01:09:20;99421.66;;;9.22;44.50
73870;BME280;64924;42.140;24.762;2023-11-19T01:11:45;99389.81;;;9.09;44.45
73870;BME280;64924;42.140;24.762;2023-11-19T01:14:11;99428.50;;;9.18;44.80
73870;BME280;64924;42.140;24.762;2023-11-19T01:16:36;99423.91;;;9.18;44.81
73870;BME280;64924;42.140;24.762;2023-11-19T01:19:02;99426.44;;;9.20;44.54
73870;BME280;64924;42.140;24.762;2023-11-19T01:21:30;99421.31;;;9.10;44.96
73870;BME280;64924;42.140;24.762;2023-11-19T01:23:57;99415.50;;;9.13;44.96
73870;BME280;64924;42.140;24.762;2023-11-19T01:26:23;99449.72;;;9.14;45.02
73870;BME280;64924;42.140;24.762;2023-11-19T01:28:49;99425.91;;;9.10;45.03
73870;BME280;64924;42.140;24.762;2023-11-19T01:31:17;99435.00;;;9.23;44.80
73870;BME280;64924;42.140;24.762;2023-11-19T01:33:43;99424.03;;;9.10;45.08
73870;BME280;64924;42.140;24.762;2023-11-19T01:36:09;99413.56;;;9.07;44.76
73870;BME280;64924;42.140;24.762;2023-11-19T01:38:36;99425.72;;;9.11;45.03
73870;BME280;64924;42.140;24.762;2023-11-19T01:41:01;99419.19;;;9.05;45.21
73870;BME280;64924;42.140;24.762;2023-11-19T01:43:35;99419.91;;;9.14;44.99
73870;BME280;64924;42.140;24.762;2023-11-19T01:46:04;99409.22;;;8.91;45.43
73870;BME280;64924;42.140;24.762;2023-11-19T01:48:32;99432.06;;;9.03;45.46
73870;BME280;64924;42.140;24.762;2023-11-19T01:50:58;99407.63;;;8.97;45.23
73870;BME280;64924;42.140;24.762;2023-11-19T01:53:24;99423.31;;;9.01;45.54
73870;BME280;64924;42.140;24.762;2023-11-19T01:55:50;99430.47;;;9.09;45.28
73870;BME280;64924;42.140;24.762;2023-11-19T01:58:18;99425.91;;;9.10;45.22
73870;BME280;64924;42.140;24.762;2023-11-19T02:00:44;99424.53;;;8.99;45.44
73870;BME280;64924;42.140;24.762;2023-11-19T02:03:11;99430.31;;;8.96;45.26
73870;BME280;64924;42.140;24.762;2023-11-19T02:05:37;99444.13;;;9.01;45.51
73870;BME280;64924;42.140;24.762;2023-11-19T02:08:02;99450.28;;;9.10;45.52
73870;BME280;64924;42.140;24.762;2023-11-19T02:10:28;99432.91;;;9.04;45.20
73870;BME280;64924;42.140;24.762;2023-11-19T02:12:53;99450.09;;;9.11;44.97
73870;BME280;64924;42.140;24.762;2023-11-19T02:15:20;99422.06;;;9.04;45.23
73870;BME280;64924;42.140;24.762;2023-11-19T02:17:47;99422.47;;;9.01;45.36
73870;BME280;64924;42.140;24.762;2023-11-19T02:20:12;99431.25;;;9.03;45.18
73870;BME280;64924;42.140;24.762;2023-11-19T02:22:41;99417.88;;;9.01;45.20
73870;BME280;64924;42.140;24.762;2023-11-19T02:25:30;99427.19;;;9.14;45.08
73870;BME280;64924;42.140;24.762;2023-11-19T02:28:01;99425.88;;;8.88;45.48
73870;BME280;64924;42.140;24.762;2023-11-19T02:30:27;99449.94;;;8.98;45.46
73870;BME280;64924;42.140;24.762;2023-11-19T02:32:57;99444.97;;;9.01;45.59
73870;BME280;64924;42.140;24.762;2023-11-19T02:35:27;99460.69;;;8.91;45.70
73870;BME280;64924;42.140;24.762;2023-11-19T02:37:53;99451.84;;;8.83;45.70
73870;BME280;64924;42.140;24.762;2023-11-19T02:40:19;99437.00;;;8.79;45.45
73870;BME280;64924;42.140;24.762;2023-11-19T02:42:44;99439.63;;;8.87;45.59
73870;BME280;64924;42.140;24.762;2023-11-19T02:45:10;99447.41;;;8.96;45.40
73870;BME280;64924;42.140;24.762;2023-11-19T02:47:42;99472.13;;;8.87;45.38
73870;BME280;64924;42.140;24.762;2023-11-19T02:50:11;99448.22;;;8.90;45.12
73870;BME280;64924;42.140;24.762;2023-11-19T02:52:45;99470.78;;;8.97;45.19
73870;BME280;64924;42.140;24.762;2023-11-19T02:55:12;99459.09;;;8.97;45.37
73870;BME280;64924;42.140;24.762;2023-11-19T02:57:41;99463.63;;;8.90;45.39
73870;BME280;64924;42.140;24.762;2023-11-19T03:02:43;99456.75;;;8.94;45.08
73870;BME280;64924;42.140;24.762;2023-11-19T03:05:13;99457.03;;;8.99;45.16
73870;BME280;64924;42.140;24.762;2023-11-19T03:07:41;99443.09;;;9.02;44.77
73870;BME280;64924;42.140;24.762;2023-11-19T03:10:08;99430.88;;;8.91;44.96
73870;BME280;64924;42.140;24.762;2023-11-19T03:12:38;99442.38;;;8.93;45.20
73870;BME280;64924;42.140;24.762;2023-11-19T03:15:04;99395.19;;;8.66;45.19
73870;BME280;64924;42.140;24.762;2023-11-19T03:17:30;99388.16;;;8.72;44.95
73870;BME280;64924;42.140;24.762;2023-11-19T03:19:55;99434.19;;;8.87;45.07
73870;BME280;64924;42.140;24.762;2023-11-19T03:22:21;99425.88;;;8.88;45.20
73870;BME280;64924;42.140;24.762;2023-11-19T03:24:46;99436.53;;;8.90;45.40
73870;BME280;64924;42.140;24.762;2023-11-19T03:27:11;99444.06;;;8.94;45.44
73870;BME280;64924;42.140;24.762;2023-11-19T03:29:37;99448.41;;;8.89;45.56
73870;BME280;64924;42.140;24.762;2023-11-19T03:32:04;99443.16;;;8.87;46.22
73870;BME280;64924;42.140;24.762;2023-11-19T03:34:30;99436.06;;;8.86;45.93
73870;BME280;64924;42.140;24.762;2023-11-19T03:36:55;99448.22;;;8.90;46.25
73870;BME280;64924;42.140;24.762;2023-11-19T03:39:22;99445.41;;;8.84;46.00
73870;BME280;64924;42.140;24.762;2023-11-19T03:41:50;99440.91;;;8.91;46.05
73870;BME280;64924;42.140;24.762;2023-11-19T03:44:16;99440.28;;;8.89;46.05
73870;BME280;64924;42.140;24.762;2023-11-19T03:46:42;99432.78;;;8.91;45.76
73870;BME280;64924;42.140;24.762;2023-11-19T03:49:07;99443.16;;;8.87;46.23
73870;BME280;64924;42.140;24.762;2023-11-19T03:51:33;99434.75;;;8.82;46.00
73870;BME280;64924;42.140;24.762;2023-11-19T03:54:00;99400.97;;;8.63;45.63
73870;BME280;64924;42.140;24.762;2023-11-19T03:56:26;99442.06;;;8.82;45.65
73870;BME280;64924;42.140;24.762;2023-11-19T03:58:52;99457.28;;;8.83;45.40
73870;BME280;64924;42.140;24.762;2023-11-19T04:01:18;99424.59;;;8.55;45.34
73870;BME280;64924;42.140;24.762;2023-11-19T04:03:43;99461.50;;;8.70;45.61
73870;BME280;64924;42.140;24.762;2023-11-19T04:06:09;99406.53;;;8.41;45.43
73870;BME280;64924;42.140;24.762;2023-11-19T04:08:35;99446.00;;;8.64;45.31
73870;BME280;64924;42.140;24.762;2023-11-19T04:11:03;99469.63;;;8.70;45.46
73870;BME280;64924;42.140;24.762;2023-11-19T04:13:28;99457.66;;;8.65;45.14
73870;BME280;64924;42.140;24.762;2023-11-19T04:15:54;99436.41;;;8.47;45.17
73870;BME280;64924;42.140;24.762;2023-11-19T04:18:19;99479.13;;;8.66;45.22
73870;BME280;64924;42.140;24.762;2023-11-19T04:20:45;99475.41;;;8.67;44.87
73870;BME280;64924;42.140;24.762;2023-11-19T04:23:10;99457.66;;;8.65;45.24
73870;BME280;64924;42.140;24.762;2023-11-19T04:25:36;99465.69;;;8.73;44.91
73870;BME280;64924;42.140;24.762;2023-11-19T04:28:02;99465.88;;;8.71;44.44
73870;BME280;64924;42.140;24.762;2023-11-19T04:30:28;99471.66;;;8.68;44.58
73870;BME280;64924;42.140;24.762;2023-11-19T04:32:54;99470.81;;;8.68;44.83
73870;BME280;64924;42.140;24.762;2023-11-19T04:35:19;99469.53;;;8.64;44.50
73870;BME280;64924;42.140;24.762;2023-11-19T04:37:45;99444.44;;;8.41;44.79
73870;BME280;64924;42.140;24.762;2023-11-19T04:40:11;99493.72;;;8.65;44.81
73870;BME280;64924;42.140;24.762;2023-11-19T04:42:37;99481.56;;;8.61;45.00
73870;BME280;64924;42.140;24.762;2023-11-19T04:45:06;99487.91;;;8.68;45.39
73870;BME280;64924;42.140;24.762;2023-11-19T04:47:33;99495.66;;;8.71;45.28
73870;BME280;64924;42.140;24.762;2023-11-19T04:49:59;99498.00;;;8.75;45.63
73870;BME280;64924;42.140;24.762;2023-11-19T04:52:25;99496.78;;;8.77;45.31
73870;BME280;64924;42.140;24.762;2023-11-19T04:54:50;99501.00;;;8.80;45.29
73870;BME280;64924;42.140;24.762;2023-11-19T04:57:16;99490.53;;;8.77;45.07
73870;BME280;64924;42.140;24.762;2023-11-19T04:59:42;99451.16;;;8.45;45.07
73870;BME280;64924;42.140;24.762;2023-11-19T05:02:08;99490.25;;;8.71;45.10
73870;BME280;64924;42.140;24.762;2023-11-19T05:04:33;99494.72;;;8.64;45.33
73870;BME280;64924;42.140;24.762;2023-11-19T05:06:59;99472.50;;;8.54;44.98
73870;BME280;64924;42.140;24.762;2023-11-19T05:09:24;99485.66;;;8.57;45.15
73870;BME280;64924;42.140;24.762;2023-11-19T05:11:50;99466.84;;;8.49;45.34
73870;BME280;64924;42.140;24.762;2023-11-19T05:14:16;99468.44;;;8.44;45.31
73870;BME280;64924;42.140;24.762;2023-11-19T05:16:42;99487.66;;;8.34;45.42
73870;BME280;64924;42.140;24.762;2023-11-19T05:19:08;99497.44;;;8.35;45.33
73870;BME280;64924;42.140;24.762;2023-11-19T05:21:35;99490.16;;;8.35;45.42
73870;BME280;64924;42.140;24.762;2023-11-19T05:24:01;99492.75;;;8.29;45.59
73870;BME280;64924;42.140;24.762;2023-11-19T05:26:30;99501.50;;;8.31;45.58
73870;BME280;64924;42.140;24.762;2023-11-19T05:28:55;99506.28;;;8.29;45.49
73870;BME280;64924;42.140;24.762;2023-11-19T05:31:21;99513.38;;;8.30;45.82
73870;BME280;64924;42.140;24.762;2023-11-19T05:33:47;99456.03;;;7.97;45.74
73870;BME280;64924;42.140;24.762;2023-11-19T05:36:12;99481.81;;;8.22;45.20
73870;BME280;64924;42.140;24.762;2023-11-19T05:38:38;99510.66;;;8.30;45.42
73870;BME280;64924;42.140;24.762;2023-11-19T05:41:04;99519.56;;;8.38;45.64
73870;BME280;64924;42.140;24.762;2023-11-19T05:43:30;99532.84;;;8.48;45.47
73870;BME280;64924;42.140;24.762;2023-11-19T05:45:56;99538.16;;;8.86;44.95
73870;BME280;64924;42.140;24.762;2023-11-19T05:48:21;99531.78;;;8.93;44.03
73870;BME280;64924;42.140;24.762;2023-11-19T05:50:48;99527.63;;;8.91;44.11
73870;BME280;64924;42.140;24.762;2023-11-19T05:53:15;99527.81;;;8.89;43.94
73870;BME280;64924;42.140;24.762;2023-11-19T05:55:41;99525.66;;;8.85;44.00
73870;BME280;64924;42.140;24.762;2023-11-19T05:58:20;99512.75;;;8.87;43.88
73870;BME280;64924;42.140;24.762;2023-11-19T06:00:47;99524.28;;;9.25;43.15
73870;BME280;64924;42.140;24.762;2023-11-19T06:03:13;99524.06;;;9.62;42.40
73870;BME280;64924;42.140;24.762;2023-11-19T06:05:38;99525.31;;;10.09;41.10
73870;BME280;64924;42.140;24.762;2023-11-19T06:08:04;99520.22;;;10.49;40.72
73870;BME280;64924;42.140;24.762;2023-11-19T06:10:32;99482.66;;;10.59;39.49
73870;BME280;64924;42.140;24.762;2023-11-19T06:12:58;99524.72;;;11.04;39.03
73870;BME280;64924;42.140;24.762;2023-11-19T06:15:25;99525.41;;;11.26;38.40
73870;BME280;64924;42.140;24.762;2023-11-19T06:17:52;99492.13;;;11.17;38.35
73870;BME280;64924;42.140;24.762;2023-11-19T06:20:17;99540.44;;;11.76;37.54
73870;BME280;64924;42.140;24.762;2023-11-19T06:22:45;99531.06;;;11.85;36.99
73870;BME280;64924;42.140;24.762;2023-11-19T06:25:11;99544.66;;;11.98;36.93
73870;BME280;64924;42.140;24.762;2023-11-19T06:27:36;99563.34;;;12.34;36.30
73870;BME280;64924;42.140;24.762;2023-11-19T06:30:02;99555.13;;;12.67;35.85
73870;BME280;64924;42.140;24.762;2023-11-19T06:32:28;99563.91;;;12.96;35.51
73870;BME280;64924;42.140;24.762;2023-11-19T06:34:54;99556.91;;;13.20;34.68
73870;BME280;64924;42.140;24.762;2023-11-19T06:37:20;99547.38;;;13.42;34.38
73870;BME280;64924;42.140;24.762;2023-11-19T06:39:45;99565.75;;;13.66;33.53
73870;BME280;64924;42.140;24.762;2023-11-19T06:42:11;99576.22;;;13.69;33.58
73870;BME280;64924;42.140;24.762;2023-11-19T06:44:36;99531.50;;;13.32;33.88
73870;BME280;64924;42.140;24.762;2023-11-19T06:47:02;99530.00;;;13.36;33.64
73870;BME280;64924;42.140;24.762;2023-11-19T06:49:27;99569.66;;;13.77;33.78
73870;BME280;64924;42.140;24.762;2023-11-19T06:51:53;99571.38;;;14.10;33.04
73870;BME280;64924;42.140;24.762;2023-11-19T06:54:18;99580.50;;;14.22;32.80
73870;BME280;64924;42.140;24.762;2023-11-19T06:56:44;99565.66;;;14.11;32.67
73870;BME280;64924;42.140;24.762;2023-11-19T06:59:09;99572.56;;;14.14;33.02
73870;BME280;64924;42.140;24.762;2023-11-19T07:01:35;99574.31;;;14.08;32.84
73870;BME280;64924;42.140;24.762;2023-11-19T07:04:01;99554.06;;;13.84;32.48
73870;BME280;64924;42.140;24.762;2023-11-19T07:06:33;99537.94;;;13.76;32.66
73870;BME280;64924;42.140;24.762;2023-11-19T07:08:59;99560.88;;;14.07;32.63
73870;BME280;64924;42.140;24.762;2023-11-19T07:11:24;99542.19;;;14.03;32.43
73870;BME280;64924;42.140;24.762;2023-11-19T07:13:50;99499.91;;;13.81;32.71
73870;BME280;64924;42.140;24.762;2023-11-19T07:16:15;99529.84;;;13.94;32.69
73870;BME280;64924;42.140;24.762;2023-11-19T07:18:41;99522.91;;;14.23;32.20
73870;BME280;64924;42.140;24.762;2023-11-19T07:21:09;99545.59;;;14.24;31.76
73870;BME280;64924;42.140;24.762;2023-11-19T07:23:36;99549.88;;;14.13;32.07
73870;BME280;64924;42.140;24.762;2023-11-19T07:26:04;99588.47;;;14.23;32.45
73870;BME280;64924;42.140;24.762;2023-11-19T07:28:30;99618.50;;;14.30;32.23
73870;BME280;64924;42.140;24.762;2023-11-19T07:30:55;99628.81;;;14.59;31.72
73870;BME280;64924;42.140;24.762;2023-11-19T07:33:21;99634.31;;;14.84;31.62
73870;BME280;64924;42.140;24.762;2023-11-19T07:35:47;99627.28;;;15.13;30.98
73870;BME280;64924;42.140;24.762;2023-11-19T07:38:14;99581.63;;;14.70;31.24
73870;BME280;64924;42.140;24.762;2023-11-19T07:40:39;99593.63;;;14.38;31.76
73870;BME280;64924;42.140;24.762;2023-11-19T07:43:04;99566.50;;;14.12;31.81
73870;BME280;64924;42.140;24.762;2023-11-19T07:45:32;99610.50;;;14.60;31.67
73870;BME280;64924;42.140;24.762;2023-11-19T07:47:58;99569.56;;;14.53;30.87
73870;BME280;64924;42.140;24.762;2023-11-19T07:50:23;99627.69;;;14.92;30.74
73870;BME280;64924;42.140;24.762;2023-11-19T07:52:50;99616.81;;;14.85;30.45
73870;BME280;64924;42.140;24.762;2023-11-19T07:55:15;99622.47;;;14.65;30.63
73870;BME280;64924;42.140;24.762;2023-11-19T07:57:41;99635.38;;;14.52;31.00
73870;BME280;64924;42.140;24.762;2023-11-19T08:00:07;99653.94;;;14.75;30.51
73870;BME280;64924;42.140;24.762;2023-11-19T08:02:33;99596.94;;;14.15;31.08
73870;BME280;64924;42.140;24.762;2023-11-19T08:04:59;99644.28;;;14.41;30.94
73870;BME280;64924;42.140;24.762;2023-11-19T08:07:24;99650.41;;;14.67;30.83
73870;BME280;64924;42.140;24.762;2023-11-19T08:09:50;99648.50;;;14.93;30.20
73870;BME280;64924;42.140;24.762;2023-11-19T08:12:15;99646.28;;;15.08;29.94
73870;BME280;64924;42.140;24.762;2023-11-19T08:14:42;99673.81;;;15.31;29.96
73870;BME280;64924;42.140;24.762;2023-11-19T08:17:09;99642.34;;;15.41;29.63
73870;BME280;64924;42.140;24.762;2023-11-19T08:19:34;99665.75;;;15.36;29.44
73870;BME280;64924;42.140;24.762;2023-11-19T08:22:00;99634.72;;;15.06;29.62
73870;BME280;64924;42.140;24.762;2023-11-19T08:24:25;99679.00;;;15.39;29.73
73870;BME280;64924;42.140;24.762;2023-11-19T08:26:51;99683.31;;;15.29;29.93
73870;BME280;64924;42.140;24.762;2023-11-19T08:29:16;99663.69;;;14.89;29.86
73870;BME280;64924;42.140;24.762;2023-11-19T08:31:42;99651.63;;;14.96;29.81
73870;BME280;64924;42.140;24.762;2023-11-19T08:34:07;99683.91;;;15.13;29.79
73870;BME280;64924;42.140;24.762;2023-11-19T08:36:34;99636.25;;;14.77;30.22
73870;BME280;64924;42.140;24.762;2023-11-19T08:39:00;99686.19;;;14.91;30.02
73870;BME280;64924;42.140;24.762;2023-11-19T08:41:26;99680.84;;;14.78;29.97
73870;BME280;64924;42.140;24.762;2023-11-19T08:43:52;99651.75;;;14.58;30.53
73870;BME280;64924;42.140;24.762;2023-11-19T08:46:17;99679.44;;;14.37;31.17
73870;BME280;64924;42.140;24.762;2023-11-19T08:48:43;99648.19;;;14.20;30.80
73870;BME280;64924;42.140;24.762;2023-11-19T08:51:08;99683.47;;;14.28;31.18
73870;BME280;64924;42.140;24.762;2023-11-19T08:53:34;99696.44;;;14.46;31.36
73870;BME280;64924;42.140;24.762;2023-11-19T08:55:59;99657.97;;;14.02;31.14
73870;BME280;64924;42.140;24.762;2023-11-19T08:58:26;99674.28;;;14.16;31.13
73870;BME280;64924;42.140;24.762;2023-11-19T09:00:51;99686.00;;;13.85;31.46
73870;BME280;64924;42.140;24.762;2023-11-19T09:03:17;99678.97;;;13.57;31.74
73870;BME280;64924;42.140;24.762;2023-11-19T09:05:42;99689.56;;;13.85;31.82
73870;BME280;64924;42.140;24.762;2023-11-19T09:08:07;99686.59;;;13.93;31.53
73870;BME280;64924;42.140;24.762;2023-11-19T09:10:33;99661.41;;;13.91;31.52
73870;BME280;64924;42.140;24.762;2023-11-19T09:12:59;99665.75;;;14.05;31.30
73870;BME280;64924;42.140;24.762;2023-11-19T09:15:24;99653.97;;;14.05;31.18
73870;BME280;64924;42.140;24.762;2023-11-19T09:17:50;99652.16;;;13.92;31.13
73870;BME280;64924;42.140;24.762;2023-11-19T09:20:15;99647.34;;;13.88;31.51
73870;BME280;64924;42.140;24.762;2023-11-19T09:22:41;99645.94;;;13.72;31.59
73870;BME280;64924;42.140;24.762;2023-11-19T09:25:07;99653.03;;;13.80;31.62
73870;BME280;64924;42.140;24.762;2023-11-19T09:27:33;99664.84;;;13.74;31.24
73870;BME280;64924;42.140;24.762;2023-11-19T09:29:58;99609.50;;;13.47;31.30
73870;BME280;64924;42.140;24.762;2023-11-19T09:32:24;99635.34;;;13.37;31.60
73870;BME280;64924;42.140;24.762;2023-11-19T09:34:50;99675.44;;;13.44;31.56
73870;BME280;64924;42.140;24.762;2023-11-19T09:37:16;99677.78;;;13.27;31.90
73870;BME280;64924;42.140;24.762;2023-11-19T09:39:41;99695.00;;;13.27;32.35
73870;BME280;64924;42.140;24.762;2023-11-19T09:42:12;99675.47;;;13.30;32.03
73870;BME280;64924;42.140;24.762;2023-11-19T09:44:38;99687.47;;;13.16;32.19
73870;BME280;64924;42.140;24.762;2023-11-19T09:47:06;99670.00;;;13.04;32.19
73870;BME280;64924;42.140;24.762;2023-11-19T09:49:33;99668.75;;;13.00;32.55
73870;BME280;64924;42.140;24.762;2023-11-19T09:52:01;99673.41;;;12.93;32.54
73870;BME280;64924;42.140;24.762;2023-11-19T09:54:27;99673.41;;;12.86;32.80
73870;BME280;64924;42.140;24.762;2023-11-19T09:56:52;99689.75;;;12.80;32.54
73870;BME280;64924;42.140;24.762;2023-11-19T09:59:18;99668.78;;;12.80;32.73
73870;BME280;64924;42.140;24.762;2023-11-19T10:01:45;99678.00;;;12.72;32.88
73870;BME280;64924;42.140;24.762;2023-11-19T10:04:15;99685.97;;;12.67;33.33
73870;BME280;64924;42.140;24.762;2023-11-19T10:06:41;99685.13;;;12.73;33.06
73870;BME280;64924;42.140;24.762;2023-11-19T10:09:07;99654.31;;;12.60;32.85
73870;BME280;64924;42.140;24.762;2023-11-19T10:11:32;99679.69;;;12.67;32.68
73870;BME280;64924;42.140;24.762;2023-11-19T10:13:59;99666.06;;;12.73;32.85
73870;BME280;64924;42.140;24.762;2023-11-19T10:16:28;99640.03;;;12.71;32.84
73870;BME280;64924;42.140;24.762;2023-11-19T10:18:55;99658.72;;;12.87;32.96
73870;BME280;64924;42.140;24.762;2023-11-19T10:21:21;99651.16;;;12.89;33.10
73870;BME280;64924;42.140;24.762;2023-11-19T10:23:48;99658.09;;;12.79;32.54
73870;BME280;64924;42.140;24.762;2023-11-19T10:26:15;99650.75;;;12.79;33.00
73870;BME280;64924;42.140;24.762;2023-11-19T10:28:41;99646.97;;;12.67;32.78
73870;BME280;64924;42.140;24.762;2023-11-19T10:31:12;99618.47;;;12.43;33.09
73870;BME280;64924;42.140;24.762;2023-11-19T10:33:38;99647.00;;;12.60;33.17
73870;BME280;64924;42.140;24.762;2023-11-19T10:36:04;99635.44;;;12.52;33.21
73870;BME280;64924;42.140;24.762;2023-11-19T10:38:30;99613.84;;;12.44;33.24
73870;BME280;64924;42.140;24.762;2023-11-19T10:40:56;99609.66;;;12.54;33.41
73870;BME280;64924;42.140;24.762;2023-11-19T10:43:22;99604.84;;;12.56;33.42
73870;BME280;64924;42.140;24.762;2023-11-19T10:45:51;99585.75;;;12.36;33.17
73870;BME280;64924;42.140;24.762;2023-11-19T10:48:17;99627.03;;;12.73;33.18
73870;BME280;64924;42.140;24.762;2023-11-19T10:50:44;99620.97;;;12.84;32.92
73870;BME280;64924;42.140;24.762;2023-11-19T10:53:11;99631.44;;;12.94;32.80
73870;BME280;64924;42.140;24.762;2023-11-19T10:55:41;99611.72;;;12.85;32.85
73870;BME280;64924;42.140;24.762;2023-11-19T10:58:08;99619.06;;;12.91;32.46
73870;BME280;64924;42.140;24.762;2023-11-19T11:00:44;99579.03;;;12.72;32.76
73870;BME280;64924;42.140;24.762;2023-11-19T11:03:20;99614.00;;;13.01;32.77
73870;BME280;64924;42.140;24.762;2023-11-19T11:05:51;99615.72;;;12.96;32.59
73870;BME280;64924;42.140;24.762;2023-11-19T11:08:17;99576.09;;;12.67;32.56
73870;BME280;64924;42.140;24.762;2023-11-19T11:10:45;99614.88;;;12.89;32.52
73870;BME280;64924;42.140;24.762;2023-11-19T11:13:13;99609.63;;;12.67;32.90
73870;BME280;64924;42.140;24.762;2023-11-19T11:15:39;99628.94;;;12.86;32.79
73870;BME280;64924;42.140;24.762;2023-11-19T11:18:08;99620.97;;;12.84;32.83
73870;BME280;64924;42.140;24.762;2023-11-19T11:20:34;99575.91;;;12.55;32.51
73870;BME280;64924;42.140;24.762;2023-11-19T11:28:36;99598.31;;;12.90;32.46
73870;BME280;64924;42.140;24.762;2023-11-19T11:34:11;99543.34;;;12.87;32.87
73870;BME280;64924;42.140;24.762;2023-11-19T11:39:30;99561.53;;;13.06;32.70
73870;BME280;64924;42.140;24.762;2023-11-19T11:50:16;99516.59;;;12.57;32.57
73870;BME280;64924;42.140;24.762;2023-11-19T11:55:33;99543.28;;;13.06;32.32
73870;BME280;64924;42.140;24.762;2023-11-19T11:58:00;99541.69;;;12.86;32.89
73870;BME280;64924;42.140;24.762;2023-11-19T12:02:55;99534.97;;;12.82;32.37
73870;BME280;64924;42.140;24.762;2023-11-19T12:05:21;99520.72;;;12.73;32.60
73870;BME280;64924;42.140;24.762;2023-11-19T12:08:00;99510.63;;;12.93;32.55
73870;BME280;64924;42.140;24.762;2023-11-19T12:10:29;99513.41;;;12.67;32.91
73870;BME280;64924;42.140;24.762;2023-11-19T12:13:00;99518.00;;;12.73;33.10
73870;BME280;64924;42.140;24.762;2023-11-19T12:15:27;99529.97;;;12.65;33.12
73870;BME280;64924;42.140;24.762;2023-11-19T12:17:54;99530.78;;;12.72;33.46
73870;BME280;64924;42.140;24.762;2023-11-19T12:20:23;99529.53;;;12.82;32.63
73870;BME280;64924;42.140;24.762;2023-11-19T12:22:50;99525.97;;;12.68;32.80
73870;BME280;64924;42.140;24.762;2023-11-19T12:25:17;99522.19;;;12.69;33.22
73870;BME280;64924;42.140;24.762;2023-11-19T12:27:45;99516.97;;;12.67;33.20
73870;BME280;64924;42.140;24.762;2023-11-19T12:30:11;99527.03;;;12.67;33.32
73870;BME280;64924;42.140;24.762;2023-11-19T12:35:04;99492.84;;;12.64;33.70
73870;BME280;64924;42.140;24.762;2023-11-19T12:37:30;99471.94;;;12.45;33.75
73870;BME280;64924;42.140;24.762;2023-11-19T12:39:57;99502.72;;;12.65;33.70
73870;BME280;64924;42.140;24.762;2023-11-19T12:42:44;99497.22;;;12.79;33.51
73870;BME280;64924;42.140;24.762;2023-11-19T12:45:09;99506.47;;;12.64;33.91
73870;BME280;64924;42.140;24.762;2023-11-19T12:47:37;99509.81;;;12.73;33.99
73870;BME280;64924;42.140;24.762;2023-11-19T12:50:02;99499.34;;;12.77;33.82
73870;BME280;64924;42.140;24.762;2023-11-19T12:52:29;99504.38;;;12.80;33.91
73870;BME280;64924;42.140;24.762;2023-11-19T12:54:55;99476.72;;;12.63;33.77
73870;BME280;64924;42.140;24.762;2023-11-19T12:57:21;99504.38;;;12.66;34.05
73870;BME280;64924;42.140;24.762;2023-11-19T12:59:55;99501.44;;;12.75;34.02
73870;BME280;64924;42.140;24.762;2023-11-19T13:02:45;99509.81;;;12.80;34.13
73870;BME280;64924;42.140;24.762;2023-11-19T13:05:29;99510.88;;;12.72;33.89
73870;BME280;64924;42.140;24.762;2023-11-19T13:08:04;99508.38;;;12.70;34.10
73870;BME280;64924;42.140;24.762;2023-11-19T13:10:31;99515.50;;;12.65;34.31
73870;BME280;64924;42.140;24.762;2023-11-19T13:15:30;99504.38;;;12.66;34.26
73870;BME280;64924;42.140;24.762;2023-11-19T13:17:56;99491.38;;;12.68;34.11
73870;BME280;64924;42.140;24.762;2023-11-19T13:20:21;99483.00;;;12.63;34.07
73870;BME280;64924;42.140;24.762;2023-11-19T13:23:00;99472.69;;;12.79;34.13
73870;BME280;64924;42.140;24.762;2023-11-19T13:25:27;99479.69;;;12.61;34.36